createdAt,value
2018-09-27T00:00:30.196Z,5.03
2018-09-27T00:02:59.556Z,5.17
2018-09-27T00:05:28.891Z,9.03
2018-09-27T00:07:58.200Z,9.00
2018-09-27T00:10:27.573Z,5.87
2018-09-27T00:12:56.836Z,10.00
2018-09-27T00:15:26.122Z,8.53
2018-09-27T00:17:55.360Z,5.73
2018-09-27T00:20:31.236Z,8.00
2018-09-27T00:23:00.716Z,7.40
2018-09-27T00:25:30.272Z,7.73
2018-09-27T00:27:59.821Z,5.57
2018-09-27T00:30:29.173Z,6.77
2018-09-27T00:32:58.482Z,9.63
2018-09-27T00:35:27.714Z,5.67
2018-09-27T00:37:57.027Z,8.03
2018-09-27T00:40:26.425Z,5.20
2018-09-27T00:42:55.716Z,9.13
2018-09-27T00:45:24.976Z,16.17
2018-09-27T00:47:54.232Z,6.83
2018-09-27T00:50:23.479Z,9.30
2018-09-27T00:52:52.688Z,8.03
2018-09-27T00:55:21.977Z,8.20
2018-09-27T00:57:51.218Z,6.60
2018-09-27T01:00:20.650Z,6.20
2018-09-27T01:02:49.940Z,4.07
2018-09-27T01:05:19.375Z,4.30
2018-09-27T01:07:48.672Z,5.43
2018-09-27T01:10:17.935Z,5.20
2018-09-27T01:12:47.237Z,7.40
2018-09-27T01:15:16.615Z,6.40
2018-09-27T01:17:45.860Z,6.40
2018-09-27T01:20:15.256Z,5.13
2018-09-27T01:22:44.827Z,6.57
2018-09-27T01:25:14.246Z,6.20
2018-09-27T01:27:43.483Z,9.53
2018-09-27T01:30:12.719Z,6.50
2018-09-27T01:32:42.178Z,14.50
2018-09-27T01:35:11.699Z,9.17
2018-09-27T01:37:41.207Z,7.17
2018-09-27T01:40:10.445Z,6.73
2018-09-27T01:42:39.794Z,5.50
2018-09-27T01:45:09.124Z,4.93
2018-09-27T01:47:38.372Z,5.07
2018-09-27T01:52:36.196Z,6.33
2018-09-27T01:55:05.780Z,7.63
2018-09-27T01:57:35.547Z,7.17
2018-09-27T02:00:05.780Z,10.77
2018-09-27T02:02:34.923Z,6.30
2018-09-27T02:05:04.974Z,9.13
2018-09-27T02:07:34.108Z,5.13
2018-09-27T02:10:03.389Z,5.20
2018-09-27T02:12:32.589Z,9.03
2018-09-27T02:15:02.061Z,6.33
2018-09-27T02:17:31.584Z,3.87
2018-09-27T02:20:00.750Z,4.87
2018-09-27T02:22:30.220Z,8.50
2018-09-27T02:24:59.862Z,11.37
2018-09-27T02:27:29.181Z,5.97
2018-09-27T02:29:58.635Z,5.67
2018-09-27T02:32:28.008Z,10.07
2018-09-27T02:37:25.910Z,8.93
2018-09-27T02:39:55.249Z,7.67
2018-09-27T02:42:24.796Z,16.73
2018-09-27T02:44:54.332Z,11.07
2018-09-27T03:22:01.309Z,9.77
2018-09-27T04:09:03.104Z,9.00
2018-09-27T04:16:28.824Z,7.75
2018-09-27T04:23:54.750Z,6.80
2018-09-27T04:26:24.182Z,7.00
2018-09-27T04:28:53.720Z,5.63
2018-09-27T04:31:23.121Z,6.55
2018-09-27T04:33:52.555Z,7.20
2018-09-27T04:36:21.769Z,5.90
2018-09-27T04:38:51.037Z,5.93
2018-09-27T04:41:20.870Z,6.23
2018-09-27T04:43:50.280Z,6.70
2018-09-27T04:46:19.464Z,7.17
2018-09-27T04:48:48.560Z,6.87
2018-09-27T04:51:17.890Z,10.50
2018-09-27T04:53:47.066Z,11.77
2018-09-27T04:56:16.384Z,8.10
2018-09-27T04:58:46.616Z,8.20
2018-09-27T05:01:15.858Z,4.70
2018-09-27T05:03:44.930Z,5.07
2018-09-27T05:06:14.407Z,10.73
2018-09-27T05:08:43.392Z,3.80
2018-09-27T05:11:12.470Z,9.80
2018-09-27T05:13:41.615Z,13.53
2018-09-27T05:16:10.899Z,3.83
2018-09-27T05:18:40.080Z,11.47
2018-09-27T05:21:09.307Z,8.17
2018-09-27T05:23:38.654Z,8.00
2018-09-27T05:26:07.768Z,5.17
2018-09-27T05:28:37.213Z,7.53
2018-09-27T05:31:06.835Z,10.40
2018-09-27T05:38:33.686Z,10.20
2018-09-27T05:41:02.894Z,7.87
2018-09-27T05:43:32.204Z,11.83
2018-09-27T05:46:02.845Z,8.10
2018-09-27T05:48:32.054Z,7.30
2018-09-27T05:51:01.359Z,9.80
2018-09-27T05:53:30.514Z,8.40
2018-09-27T05:55:59.778Z,6.30
2018-09-27T05:58:29.228Z,5.87
2018-09-27T06:00:58.714Z,7.20
2018-09-27T06:03:27.924Z,6.20
2018-09-27T06:05:57.181Z,9.87
2018-09-27T06:08:26.758Z,7.23
2018-09-27T06:10:56.151Z,5.17
2018-09-27T06:13:25.542Z,6.30
2018-09-27T06:15:54.886Z,7.70
2018-09-27T06:18:24.356Z,5.83
2018-09-27T06:20:53.522Z,8.40
2018-09-27T06:23:23.191Z,5.50
2018-09-27T06:25:52.477Z,6.83
2018-09-27T06:28:21.762Z,10.57
2018-09-27T06:30:51.554Z,5.13
2018-09-27T06:33:20.847Z,12.93
2018-09-27T06:35:50.174Z,7.57
2018-09-27T06:38:20.066Z,9.03
2018-09-27T06:40:49.444Z,6.10
2018-09-27T06:43:18.924Z,5.77
2018-09-27T06:45:48.459Z,10.50
2018-09-27T06:48:17.731Z,14.00
2018-09-27T06:50:47.014Z,9.77
2018-09-27T06:53:16.202Z,10.13
2018-09-27T06:55:45.480Z,6.80
2018-09-27T07:37:51.379Z,8.80
2018-09-27T07:40:20.559Z,14.83
2018-09-27T07:42:49.689Z,7.33
2018-09-27T07:45:19.936Z,18.83
2018-09-27T07:47:48.904Z,6.37
2018-09-27T07:50:18.043Z,5.10
2018-09-27T07:52:47.223Z,8.27
2018-09-27T07:55:16.421Z,10.80
2018-09-27T07:57:45.643Z,7.20
2018-09-27T08:00:15.049Z,10.87
2018-09-27T08:02:44.268Z,8.60
2018-09-27T08:05:13.573Z,7.33
2018-09-27T08:07:42.880Z,10.97
2018-09-27T08:10:12.212Z,7.70
2018-09-27T08:12:41.381Z,8.43
2018-09-27T08:15:10.756Z,6.47
2018-09-27T08:17:40.497Z,9.40
2018-09-27T08:20:09.994Z,10.90
2018-09-27T08:22:39.855Z,8.33
2018-09-27T08:25:09.100Z,4.87
2018-09-27T08:27:38.455Z,11.03
2018-09-27T08:30:07.664Z,11.97
2018-09-27T08:32:36.895Z,7.23
2018-09-27T08:37:34.735Z,7.80
2018-09-27T08:40:03.928Z,7.47
2018-09-27T08:47:30.943Z,7.03
2018-09-27T08:50:00.805Z,5.23
2018-09-27T08:52:30.474Z,7.60
2018-09-27T08:54:59.861Z,9.10
2018-09-27T08:57:29.171Z,5.60
2018-09-27T08:59:58.536Z,5.43
2018-09-27T09:19:47.279Z,8.60
2018-09-27T09:22:16.372Z,8.80
2018-09-27T09:24:46.967Z,11.97
2018-09-27T09:27:16.361Z,8.30
2018-09-27T09:29:45.818Z,9.10
2018-09-27T09:32:15.218Z,7.20
2018-09-27T09:34:44.667Z,10.00
2018-09-27T09:37:13.985Z,9.27
2018-09-27T09:39:43.597Z,5.80
2018-09-27T09:42:13.272Z,6.00
2018-09-27T09:44:42.787Z,10.80
2018-09-27T09:47:12.599Z,8.93
2018-09-27T09:49:42.034Z,10.10
2018-09-27T09:54:40.173Z,14.10
2018-09-27T09:57:09.499Z,7.20
2018-09-27T09:59:38.915Z,6.40
2018-09-27T10:02:08.783Z,6.67
2018-09-27T10:04:38.492Z,4.43
2018-09-27T10:07:07.957Z,11.03
2018-09-27T10:09:37.658Z,7.13
2018-09-27T10:12:06.995Z,6.80
2018-09-27T10:14:37.080Z,5.60
2018-09-27T10:17:06.738Z,5.65
2018-09-27T10:19:36.447Z,6.40
2018-09-27T10:22:05.851Z,5.50
2018-09-27T10:24:35.358Z,5.55
2018-09-27T10:27:04.935Z,10.67
2018-09-27T10:29:34.271Z,6.00
2018-09-27T10:32:03.540Z,5.93
2018-09-27T10:34:32.909Z,7.10
2018-09-27T10:37:02.195Z,5.03
2018-09-27T10:39:31.663Z,6.00
2018-09-27T10:42:07.447Z,6.47
2018-09-27T10:44:37.066Z,2.53
2018-09-27T10:47:06.937Z,4.40
2018-09-27T10:49:36.168Z,4.40
2018-09-27T10:52:05.622Z,7.00
2018-09-27T10:54:35.003Z,5.73
2018-09-27T10:57:04.450Z,4.27
2018-09-27T10:59:33.818Z,4.10
2018-09-27T11:02:03.268Z,5.63
2018-09-27T11:04:33.374Z,6.33
2018-09-27T11:07:02.685Z,3.03
2018-09-27T11:09:31.966Z,5.27
2018-09-27T11:12:01.109Z,6.97
2018-09-27T11:14:30.349Z,9.57
2018-09-27T11:16:59.613Z,3.87
2018-09-27T11:19:29.063Z,7.37
2018-09-27T11:21:58.285Z,6.20
2018-09-27T11:24:27.519Z,7.40
2018-09-27T11:26:56.866Z,2.73
2018-09-27T11:29:31.304Z,5.87
2018-09-27T11:32:06.628Z,4.60
2018-09-27T11:34:36.195Z,3.07
2018-09-27T11:37:05.738Z,2.80
2018-09-27T11:39:35.331Z,5.80
2018-09-27T11:42:05.016Z,5.07
2018-09-27T11:44:34.335Z,4.47
2018-09-27T11:47:03.979Z,5.03
2018-09-27T11:49:33.720Z,5.47
2018-09-27T11:52:03.004Z,3.30
2018-09-27T11:54:32.373Z,6.27
2018-09-27T11:57:01.971Z,4.40
2018-09-27T11:59:31.469Z,3.37
2018-09-27T12:02:00.826Z,2.90
2018-09-27T12:04:30.068Z,2.33
2018-09-27T12:06:59.384Z,3.63
2018-09-27T12:09:28.786Z,2.70
2018-09-27T12:11:58.717Z,3.80
2018-09-27T12:14:28.495Z,3.40
2018-09-27T12:16:57.917Z,10.93
2018-09-27T12:19:27.289Z,2.77
2018-09-27T12:21:56.450Z,3.97
2018-09-27T12:24:25.699Z,2.43
2018-09-27T12:26:55.051Z,2.50
2018-09-27T12:29:24.399Z,11.80
2018-09-27T12:31:53.665Z,2.10
2018-09-27T12:34:23.178Z,2.40
2018-09-27T12:36:52.687Z,3.00
2018-09-27T12:39:22.142Z,2.40
2018-09-27T12:41:51.680Z,2.67
2018-09-27T12:44:20.967Z,2.17
2018-09-27T12:46:50.316Z,3.00
2018-09-27T12:49:19.780Z,3.73
2018-09-27T12:51:49.382Z,3.20
2018-09-27T12:54:18.675Z,1.40
2018-09-27T12:56:47.928Z,1.40
2018-09-27T12:59:17.320Z,1.85
2018-09-27T13:01:46.918Z,1.70
2018-09-27T13:04:16.285Z,3.37
2018-09-27T13:06:45.585Z,3.03
2018-09-27T13:09:15.189Z,1.70
2018-09-27T13:11:44.351Z,1.60
2018-09-27T13:14:13.808Z,3.80
2018-09-27T13:16:43.311Z,1.37
2018-09-27T13:19:12.883Z,3.20
2018-09-27T13:21:42.338Z,2.87
2018-09-27T13:24:11.565Z,3.47
2018-09-27T13:26:41.179Z,3.27
2018-09-27T13:29:10.480Z,3.97
2018-09-27T13:31:39.932Z,4.40
2018-09-27T13:34:09.222Z,5.20
2018-09-27T13:36:38.547Z,1.80
2018-09-27T13:39:09.542Z,3.77
2018-09-27T13:41:40.170Z,2.70
2018-09-27T13:44:09.456Z,3.67
2018-09-27T13:46:38.681Z,4.20
2018-09-27T13:49:08.165Z,5.83
2018-09-27T13:51:38.134Z,3.87
2018-09-27T13:54:07.466Z,7.90
2018-09-27T13:56:36.830Z,5.23
2018-09-27T13:59:06.965Z,8.30
2018-09-27T14:01:37.444Z,4.53
2018-09-27T14:04:07.085Z,3.97
2018-09-27T14:06:36.629Z,3.70
2018-09-27T14:09:07.998Z,3.57
2018-09-27T14:11:37.734Z,2.30
2018-09-27T14:14:07.516Z,4.20
2018-09-27T14:16:36.878Z,4.00
2018-09-27T14:19:06.231Z,2.73
2018-09-27T14:21:35.395Z,3.50
2018-09-27T14:24:04.671Z,2.50
2018-09-27T14:26:34.244Z,2.90
2018-09-27T14:29:03.643Z,1.53
2018-09-27T14:31:33.188Z,2.47
2018-09-27T14:34:02.557Z,5.17
2018-09-27T14:36:32.041Z,2.40
2018-09-27T14:39:01.500Z,2.23
2018-09-27T14:41:30.932Z,5.33
2018-09-27T14:44:00.379Z,1.70
2018-09-27T14:46:29.810Z,4.73
2018-09-27T14:48:59.089Z,2.47
2018-09-27T14:51:28.644Z,5.87
2018-09-27T14:53:58.034Z,2.20
2018-09-27T14:56:27.821Z,1.63
2018-09-27T14:58:57.522Z,3.47
2018-09-27T15:01:29.784Z,2.17
2018-09-27T15:03:59.123Z,3.23
2018-09-27T15:06:28.718Z,2.33
2018-09-27T15:08:58.462Z,2.90
2018-09-27T15:11:27.833Z,1.93
2018-09-27T15:13:57.227Z,5.83
2018-09-27T15:16:26.558Z,2.70
2018-09-27T15:18:56.838Z,3.07
2018-09-27T15:21:26.564Z,3.90
2018-09-27T15:23:56.645Z,1.60
2018-09-27T15:26:31.760Z,1.97
2018-09-27T15:29:01.110Z,2.20
2018-09-27T15:31:30.548Z,1.83
2018-09-27T15:34:00.415Z,4.10
2018-09-27T15:36:30.342Z,3.63
2018-09-27T15:38:59.955Z,2.20
2018-09-27T15:41:29.875Z,2.77
2018-09-27T15:43:59.358Z,2.90
2018-09-27T15:46:29.075Z,1.70
2018-09-27T15:48:58.573Z,2.80
2018-09-27T15:51:28.208Z,2.63
2018-09-27T15:53:57.519Z,2.60
2018-09-27T15:56:26.736Z,3.43
2018-09-27T15:58:56.090Z,4.63
2018-09-27T16:01:32.118Z,2.83
2018-09-27T16:04:01.468Z,2.33
2018-09-27T16:06:30.924Z,3.77
2018-09-27T16:09:00.685Z,2.30
2018-09-27T16:11:30.153Z,2.03
2018-09-27T16:13:59.695Z,2.53
2018-09-27T16:16:29.081Z,3.20
2018-09-27T16:18:58.364Z,7.17
2018-09-27T16:21:27.803Z,3.27
2018-09-27T16:23:57.114Z,2.93
2018-09-27T16:26:26.399Z,3.10
2018-09-27T16:28:56.288Z,4.20
2018-09-27T16:31:26.435Z,2.63
2018-09-27T16:33:55.727Z,2.23
2018-09-27T16:36:24.955Z,6.20
2018-09-27T16:38:54.909Z,7.10
2018-09-27T16:41:24.067Z,6.90
2018-09-27T16:43:53.766Z,6.10
2018-09-27T16:46:23.072Z,5.80
2018-09-27T16:48:52.352Z,5.03
2018-09-27T16:51:21.517Z,10.97
2018-09-27T16:53:50.889Z,8.30
2018-09-27T16:56:20.141Z,3.43
2018-09-27T16:58:49.489Z,4.97
2018-09-27T17:01:18.721Z,5.23
2018-09-27T17:03:48.089Z,9.33
2018-09-27T17:06:17.417Z,4.30
2018-09-27T17:08:46.763Z,3.87
2018-09-27T17:11:15.934Z,5.07
2018-09-27T17:13:45.197Z,4.00
2018-09-27T17:16:14.418Z,7.23
2018-09-27T17:18:43.754Z,6.50
2018-09-27T17:21:13.106Z,4.70
2018-09-27T17:23:42.501Z,5.57
2018-09-27T17:26:11.702Z,16.47
2018-09-27T17:28:41.081Z,6.97
2018-09-27T17:31:10.354Z,8.23
2018-09-27T17:41:05.831Z,6.47
2018-09-27T17:43:35.550Z,10.05
2018-09-27T17:46:05.442Z,5.40
2018-09-27T17:48:34.797Z,8.40
2018-09-27T17:51:04.222Z,5.10
2018-09-27T17:53:33.731Z,5.93
2018-09-27T17:56:03.130Z,4.80
2018-09-27T17:58:32.630Z,7.50
2018-09-27T18:01:02.207Z,13.90
2018-09-27T18:03:31.727Z,7.37
2018-09-27T18:06:01.197Z,4.70
2018-09-27T18:08:30.610Z,5.47
2018-09-27T18:13:28.837Z,5.23
2018-09-27T18:15:58.305Z,7.10
2018-09-27T18:18:27.895Z,4.07
2018-09-27T18:20:57.488Z,5.33
2018-09-27T18:23:26.924Z,6.03
2018-09-27T18:25:56.657Z,3.23
2018-09-27T18:28:25.971Z,4.80
2018-09-27T18:30:55.286Z,5.60
2018-09-27T18:35:53.292Z,7.07
2018-09-27T18:38:22.814Z,5.33
2018-09-27T18:40:52.328Z,4.23
2018-09-27T18:43:21.810Z,3.80
2018-09-27T18:48:19.491Z,5.93
2018-09-27T18:50:48.908Z,6.00
2018-09-27T18:53:18.370Z,5.80
2018-09-27T18:55:48.092Z,6.00
2018-09-27T18:58:17.355Z,6.25
2018-09-27T19:03:15.495Z,8.60
2018-09-27T19:05:44.842Z,5.77
2018-09-27T19:08:14.219Z,6.90
2018-09-27T19:10:43.554Z,7.90
2018-09-27T19:13:13.371Z,5.10
2018-09-27T19:15:42.546Z,12.17
2018-09-27T19:18:11.963Z,6.80
2018-09-27T19:20:41.066Z,5.40
2018-09-27T19:23:10.484Z,6.07
2018-09-27T19:25:39.827Z,10.50
2018-09-27T19:28:09.204Z,5.70
2018-09-27T19:30:38.828Z,7.07
2018-09-27T19:33:08.631Z,6.27
2018-09-27T19:35:37.880Z,4.90
2018-09-27T19:40:35.798Z,6.00
2018-09-27T19:43:05.412Z,8.17
2018-09-27T19:45:34.797Z,4.80
2018-09-27T19:50:32.595Z,5.00
2018-09-27T19:53:01.991Z,7.90
2018-09-27T19:55:31.370Z,5.37
2018-09-27T19:58:00.760Z,8.60
2018-09-27T20:05:28.282Z,6.40
2018-09-27T20:07:57.780Z,5.07
2018-09-27T20:10:27.261Z,8.87
2018-09-27T20:12:56.736Z,8.40
2018-09-27T20:15:26.765Z,7.30
2018-09-27T20:17:56.103Z,6.07
2018-09-27T20:20:25.295Z,7.65
2018-09-27T20:22:54.504Z,8.13
2018-09-27T20:27:52.195Z,5.70
2018-09-27T20:30:21.533Z,8.17
2018-09-27T20:32:50.898Z,8.27
2018-09-27T20:35:20.123Z,6.50
2018-09-27T20:37:49.443Z,6.07
2018-09-27T20:40:18.748Z,12.00
2018-09-27T20:42:47.919Z,6.40
2018-09-27T20:45:17.197Z,6.60
2018-09-27T20:47:46.376Z,9.40
2018-09-27T20:50:15.779Z,11.17
2018-09-27T20:52:44.847Z,8.07
2018-09-27T20:55:14.134Z,9.67
2018-09-27T20:57:43.272Z,10.60
2018-09-27T21:00:12.429Z,11.40
2018-09-27T21:02:41.545Z,9.13
2018-09-27T21:05:10.722Z,9.07
2018-09-27T21:10:08.259Z,13.63
2018-09-27T21:12:37.659Z,10.83
2018-09-27T21:15:06.991Z,12.00
2018-09-27T22:14:29.853Z,11.03
2018-09-27T22:24:24.026Z,11.30
2018-09-27T22:26:53.184Z,17.10
2018-09-27T22:29:22.397Z,13.67
2018-09-27T22:34:19.778Z,13.10
2018-09-27T22:36:49.034Z,12.90
2018-09-27T22:39:18.151Z,11.40
2018-09-27T22:41:47.159Z,12.80
2018-09-27T22:46:44.898Z,11.65
2018-09-27T22:49:14.088Z,16.40
2018-09-27T22:51:43.347Z,9.40
2018-09-27T22:59:09.819Z,12.57
2018-09-27T23:04:08.280Z,17.93
2018-09-27T23:06:38.081Z,14.70
2018-09-27T23:09:07.830Z,14.53
2018-09-27T23:11:37.834Z,14.60
2018-09-27T23:14:07.254Z,14.03
2018-09-27T23:16:36.730Z,15.37
2018-09-27T23:19:05.915Z,16.20
2018-09-27T23:21:37.246Z,14.23
2018-09-27T23:24:06.859Z,13.63
2018-09-27T23:26:35.857Z,10.87
2018-09-27T23:29:04.894Z,15.47
2018-09-27T23:31:34.042Z,15.33
2018-09-27T23:34:03.070Z,11.60
2018-09-27T23:36:32.198Z,13.03
2018-09-27T23:39:01.323Z,14.47
2018-09-27T23:41:30.480Z,13.63
2018-09-27T23:43:59.681Z,12.07
2018-09-27T23:46:28.775Z,15.40
2018-09-27T23:48:58.002Z,18.23
2018-09-27T23:51:27.265Z,13.30
2018-09-27T23:53:56.546Z,14.40
2018-09-27T23:56:25.715Z,20.67
2018-09-27T23:58:55.048Z,13.83
